sensor_id;sensor_type;location;lat;lon;timestamp;P1;durP1;ratioP1;P2;durP2;ratioP2
80392;SDS011;69719;45.544;10.218;2024-01-07T00:01:49;53.35;;;39.25;;
80392;SDS011;69719;45.544;10.218;2024-01-07T00:04:15;57.50;;;41.72;;
80392;SDS011;69719;45.544;10.218;2024-01-07T00:06:41;57.63;;;39.53;;
80392;SDS011;69719;45.544;10.218;2024-01-07T00:09:06;60.53;;;42.05;;
80392;SDS011;69719;45.544;10.218;2024-01-07T00:11:32;52.50;;;38.25;;
80392;SDS011;69719;45.544;10.218;2024-01-07T00:13:57;59.70;;;43.45;;
80392;SDS011;69719;45.544;10.218;2024-01-07T00:16:23;57.00;;;40.80;;
80392;SDS011;69719;45.544;10.218;2024-01-07T00:18:49;56.38;;;39.08;;
80392;SDS011;69719;45.544;10.218;2024-01-07T00:21:14;61.35;;;42.55;;
80392;SDS011;69719;45.544;10.218;2024-01-07T00:23:40;60.25;;;41.78;;
80392;SDS011;69719;45.544;10.218;2024-01-07T00:26:05;61.42;;;41.30;;
80392;SDS011;69719;45.544;10.218;2024-01-07T00:28:32;63.38;;;42.17;;
80392;SDS011;69719;45.544;10.218;2024-01-07T00:30:57;57.95;;;40.22;;
80392;SDS011;69719;45.544;10.218;2024-01-07T00:33:23;59.33;;;41.58;;
80392;SDS011;69719;45.544;10.218;2024-01-07T00:35:48;62.72;;;42.20;;
80392;SDS011;69719;45.544;10.218;2024-01-07T00:38:13;61.33;;;41.92;;
80392;SDS011;69719;45.544;10.218;2024-01-07T00:40:39;61.90;;;40.83;;
80392;SDS011;69719;45.544;10.218;2024-01-07T00:43:04;62.58;;;45.20;;
80392;SDS011;69719;45.544;10.218;2024-01-07T00:45:30;65.85;;;44.00;;
80392;SDS011;69719;45.544;10.218;2024-01-07T00:47:55;60.45;;;42.20;;
80392;SDS011;69719;45.544;10.218;2024-01-07T00:50:21;76.90;;;56.03;;
80392;SDS011;69719;45.544;10.218;2024-01-07T00:52:46;59.33;;;43.10;;
80392;SDS011;69719;45.544;10.218;2024-01-07T00:55:12;55.33;;;39.72;;
80392;SDS011;69719;45.544;10.218;2024-01-07T00:57:38;58.30;;;40.83;;
80392;SDS011;69719;45.544;10.218;2024-01-07T01:00:06;54.80;;;38.88;;
80392;SDS011;69719;45.544;10.218;2024-01-07T01:02:33;57.17;;;40.28;;
80392;SDS011;69719;45.544;10.218;2024-01-07T01:04:58;49.65;;;35.15;;
80392;SDS011;69719;45.544;10.218;2024-01-07T01:07:24;47.63;;;35.03;;
80392;SDS011;69719;45.544;10.218;2024-01-07T01:09:49;44.03;;;31.35;;
80392;SDS011;69719;45.544;10.218;2024-01-07T01:12:15;44.85;;;33.03;;
80392;SDS011;69719;45.544;10.218;2024-01-07T01:14:40;46.17;;;32.00;;
80392;SDS011;69719;45.544;10.218;2024-01-07T01:17:06;46.28;;;33.50;;
80392;SDS011;69719;45.544;10.218;2024-01-07T01:19:32;50.42;;;35.58;;
80392;SDS011;69719;45.544;10.218;2024-01-07T01:21:57;48.97;;;33.95;;
80392;SDS011;69719;45.544;10.218;2024-01-07T01:24:23;48.55;;;34.50;;
80392;SDS011;69719;45.544;10.218;2024-01-07T01:26:48;45.38;;;33.30;;
80392;SDS011;69719;45.544;10.218;2024-01-07T01:29:14;46.55;;;34.35;;
80392;SDS011;69719;45.544;10.218;2024-01-07T01:31:39;45.38;;;33.28;;
80392;SDS011;69719;45.544;10.218;2024-01-07T01:34:05;44.08;;;32.72;;
80392;SDS011;69719;45.544;10.218;2024-01-07T01:36:31;52.38;;;34.65;;
80392;SDS011;69719;45.544;10.218;2024-01-07T01:38:57;45.72;;;32.38;;
80392;SDS011;69719;45.544;10.218;2024-01-07T01:41:22;50.63;;;38.13;;
80392;SDS011;69719;45.544;10.218;2024-01-07T01:43:48;44.67;;;32.17;;
80392;SDS011;69719;45.544;10.218;2024-01-07T01:46:14;45.38;;;32.08;;
80392;SDS011;69719;45.544;10.218;2024-01-07T01:48:39;42.60;;;31.38;;
80392;SDS011;69719;45.544;10.218;2024-01-07T01:51:06;40.33;;;30.00;;
80392;SDS011;69719;45.544;10.218;2024-01-07T01:53:32;45.92;;;30.80;;
80392;SDS011;69719;45.544;10.218;2024-01-07T01:55:59;41.15;;;30.55;;
80392;SDS011;69719;45.544;10.218;2024-01-07T01:58:27;41.83;;;29.92;;
80392;SDS011;69719;45.544;10.218;2024-01-07T02:00:54;41.03;;;30.55;;
80392;SDS011;69719;45.544;10.218;2024-01-07T02:03:20;44.75;;;32.88;;
80392;SDS011;69719;45.544;10.218;2024-01-07T02:05:45;42.92;;;30.40;;
80392;SDS011;69719;45.544;10.218;2024-01-07T02:08:13;42.85;;;31.13;;
80392;SDS011;69719;45.544;10.218;2024-01-07T02:10:38;42.20;;;30.25;;
80392;SDS011;69719;45.544;10.218;2024-01-07T02:13:04;44.10;;;30.65;;
80392;SDS011;69719;45.544;10.218;2024-01-07T02:15:30;41.00;;;30.40;;
80392;SDS011;69719;45.544;10.218;2024-01-07T02:17:56;41.45;;;29.52;;
80392;SDS011;69719;45.544;10.218;2024-01-07T02:20:21;41.72;;;30.45;;
80392;SDS011;69719;45.544;10.218;2024-01-07T02:22:47;43.55;;;31.75;;
80392;SDS011;69719;45.544;10.218;2024-01-07T02:25:13;41.25;;;31.27;;
80392;SDS011;69719;45.544;10.218;2024-01-07T02:27:38;40.97;;;28.85;;
80392;SDS011;69719;45.544;10.218;2024-01-07T02:30:04;40.20;;;29.83;;
80392;SDS011;69719;45.544;10.218;2024-01-07T02:32:30;40.95;;;30.55;;
80392;SDS011;69719;45.544;10.218;2024-01-07T02:34:59;39.90;;;29.77;;
80392;SDS011;69719;45.544;10.218;2024-01-07T02:37:25;41.33;;;30.02;;
80392;SDS011;69719;45.544;10.218;2024-01-07T02:39:50;40.75;;;30.88;;
80392;SDS011;69719;45.544;10.218;2024-01-07T02:42:16;41.80;;;31.27;;
80392;SDS011;69719;45.544;10.218;2024-01-07T02:44:41;44.80;;;31.88;;
80392;SDS011;69719;45.544;10.218;2024-01-07T02:47:07;40.97;;;31.05;;
80392;SDS011;69719;45.544;10.218;2024-01-07T02:49:32;40.30;;;30.23;;
80392;SDS011;69719;45.544;10.218;2024-01-07T02:51:58;40.92;;;30.52;;
80392;SDS011;69719;45.544;10.218;2024-01-07T02:54:23;43.17;;;31.65;;
80392;SDS011;69719;45.544;10.218;2024-01-07T02:56:49;41.08;;;30.20;;
80392;SDS011;69719;45.544;10.218;2024-01-07T02:59:14;41.08;;;31.38;;
80392;SDS011;69719;45.544;10.218;2024-01-07T03:01:40;40.63;;;29.77;;
80392;SDS011;69719;45.544;10.218;2024-01-07T03:04:06;41.60;;;30.55;;
80392;SDS011;69719;45.544;10.218;2024-01-07T03:06:33;38.78;;;28.58;;
80392;SDS011;69719;45.544;10.218;2024-01-07T03:08:58;42.15;;;30.30;;
80392;SDS011;69719;45.544;10.218;2024-01-07T03:11:24;40.00;;;29.35;;
80392;SDS011;69719;45.544;10.218;2024-01-07T03:13:49;39.97;;;30.23;;
80392;SDS011;69719;45.544;10.218;2024-01-07T03:16:21;43.90;;;31.25;;
80392;SDS011;69719;45.544;10.218;2024-01-07T03:18:48;40.60;;;31.17;;
80392;SDS011;69719;45.544;10.218;2024-01-07T03:21:20;41.17;;;32.05;;
80392;SDS011;69719;45.544;10.218;2024-01-07T03:23:46;41.83;;;31.55;;
80392;SDS011;69719;45.544;10.218;2024-01-07T03:26:12;42.25;;;31.58;;
80392;SDS011;69719;45.544;10.218;2024-01-07T03:28:39;42.70;;;31.88;;
80392;SDS011;69719;45.544;10.218;2024-01-07T03:31:08;39.72;;;31.15;;
80392;SDS011;69719;45.544;10.218;2024-01-07T03:33:35;43.00;;;31.05;;
80392;SDS011;69719;45.544;10.218;2024-01-07T03:38:35;40.35;;;30.98;;
80392;SDS011;69719;45.544;10.218;2024-01-07T03:41:01;40.83;;;30.77;;
80392;SDS011;69719;45.544;10.218;2024-01-07T03:43:27;38.22;;;29.42;;
80392;SDS011;69719;45.544;10.218;2024-01-07T03:45:53;48.80;;;31.23;;
80392;SDS011;69719;45.544;10.218;2024-01-07T03:48:18;40.65;;;30.33;;
80392;SDS011;69719;45.544;10.218;2024-01-07T03:50:44;41.60;;;30.70;;
80392;SDS011;69719;45.544;10.218;2024-01-07T03:53:10;42.75;;;30.58;;
80392;SDS011;69719;45.544;10.218;2024-01-07T03:55:36;41.58;;;31.40;;
80392;SDS011;69719;45.544;10.218;2024-01-07T03:58:01;40.10;;;30.33;;
80392;SDS011;69719;45.544;10.218;2024-01-07T04:00:28;38.65;;;29.48;;
80392;SDS011;69719;45.544;10.218;2024-01-07T04:02:53;36.70;;;27.95;;
80392;SDS011;69719;45.544;10.218;2024-01-07T04:05:19;37.03;;;27.83;;
80392;SDS011;69719;45.544;10.218;2024-01-07T04:07:45;36.10;;;27.23;;
80392;SDS011;69719;45.544;10.218;2024-01-07T04:10:10;36.05;;;26.73;;
80392;SDS011;69719;45.544;10.218;2024-01-07T04:12:36;37.80;;;28.35;;
80392;SDS011;69719;45.544;10.218;2024-01-07T04:15:02;37.00;;;26.55;;
80392;SDS011;69719;45.544;10.218;2024-01-07T04:17:28;36.08;;;27.00;;
80392;SDS011;69719;45.544;10.218;2024-01-07T04:19:54;37.17;;;27.70;;
80392;SDS011;69719;45.544;10.218;2024-01-07T04:22:20;36.50;;;27.58;;
80392;SDS011;69719;45.544;10.218;2024-01-07T04:24:45;34.92;;;25.80;;
80392;SDS011;69719;45.544;10.218;2024-01-07T04:27:11;36.38;;;26.52;;
80392;SDS011;69719;45.544;10.218;2024-01-07T04:29:39;35.25;;;25.95;;
80392;SDS011;69719;45.544;10.218;2024-01-07T04:32:04;34.53;;;25.63;;
80392;SDS011;69719;45.544;10.218;2024-01-07T04:34:30;35.28;;;26.67;;
80392;SDS011;69719;45.544;10.218;2024-01-07T04:36:55;35.53;;;25.65;;
80392;SDS011;69719;45.544;10.218;2024-01-07T04:39:21;35.47;;;24.83;;
80392;SDS011;69719;45.544;10.218;2024-01-07T04:41:46;33.50;;;23.90;;
80392;SDS011;69719;45.544;10.218;2024-01-07T04:44:12;30.30;;;23.20;;
80392;SDS011;69719;45.544;10.218;2024-01-07T04:46:38;33.88;;;23.48;;
80392;SDS011;69719;45.544;10.218;2024-01-07T04:49:04;33.22;;;23.80;;
80392;SDS011;69719;45.544;10.218;2024-01-07T04:51:31;32.13;;;22.52;;
80392;SDS011;69719;45.544;10.218;2024-01-07T04:53:56;32.65;;;23.35;;
80392;SDS011;69719;45.544;10.218;2024-01-07T04:56:22;31.77;;;23.60;;
80392;SDS011;69719;45.544;10.218;2024-01-07T04:58:48;32.03;;;22.58;;
80392;SDS011;69719;45.544;10.218;2024-01-07T05:01:14;31.58;;;22.20;;
80392;SDS011;69719;45.544;10.218;2024-01-07T05:03:39;30.48;;;22.65;;
80392;SDS011;69719;45.544;10.218;2024-01-07T05:06:05;30.38;;;22.40;;
80392;SDS011;69719;45.544;10.218;2024-01-07T05:08:33;29.23;;;21.38;;
80392;SDS011;69719;45.544;10.218;2024-01-07T05:10:58;30.58;;;20.75;;
80392;SDS011;69719;45.544;10.218;2024-01-07T05:13:24;26.77;;;19.42;;
80392;SDS011;69719;45.544;10.218;2024-01-07T05:15:49;26.30;;;17.50;;
80392;SDS011;69719;45.544;10.218;2024-01-07T05:18:22;27.35;;;18.85;;
80392;SDS011;69719;45.544;10.218;2024-01-07T05:20:48;26.23;;;17.60;;
80392;SDS011;69719;45.544;10.218;2024-01-07T05:23:15;23.98;;;16.60;;
80392;SDS011;69719;45.544;10.218;2024-01-07T05:25:42;25.45;;;17.42;;
80392;SDS011;69719;45.544;10.218;2024-01-07T05:28:13;26.90;;;19.48;;
80392;SDS011;69719;45.544;10.218;2024-01-07T05:30:39;26.05;;;18.02;;
80392;SDS011;69719;45.544;10.218;2024-01-07T05:33:06;26.80;;;18.63;;
80392;SDS011;69719;45.544;10.218;2024-01-07T05:35:31;26.10;;;18.00;;
80392;SDS011;69719;45.544;10.218;2024-01-07T05:37:57;28.00;;;18.45;;
80392;SDS011;69719;45.544;10.218;2024-01-07T05:40:23;24.33;;;16.02;;
80392;SDS011;69719;45.544;10.218;2024-01-07T05:42:49;24.25;;;15.63;;
80392;SDS011;69719;45.544;10.218;2024-01-07T05:45:14;24.83;;;16.13;;
80392;SDS011;69719;45.544;10.218;2024-01-07T05:47:40;25.67;;;17.30;;
80392;SDS011;69719;45.544;10.218;2024-01-07T05:50:06;24.45;;;15.52;;
80392;SDS011;69719;45.544;10.218;2024-01-07T05:52:32;23.40;;;14.82;;
80392;SDS011;69719;45.544;10.218;2024-01-07T05:54:58;23.15;;;14.95;;
80392;SDS011;69719;45.544;10.218;2024-01-07T05:57:23;25.45;;;16.50;;
80392;SDS011;69719;45.544;10.218;2024-01-07T05:59:49;23.23;;;15.02;;
80392;SDS011;69719;45.544;10.218;2024-01-07T06:02:15;25.30;;;15.25;;
80392;SDS011;69719;45.544;10.218;2024-01-07T06:04:42;20.58;;;13.25;;
80392;SDS011;69719;45.544;10.218;2024-01-07T06:07:08;21.35;;;13.77;;
80392;SDS011;69719;45.544;10.218;2024-01-07T06:09:33;23.77;;;15.30;;
80392;SDS011;69719;45.544;10.218;2024-01-07T06:11:59;27.20;;;17.15;;
80392;SDS011;69719;45.544;10.218;2024-01-07T06:14:24;24.33;;;16.17;;
80392;SDS011;69719;45.544;10.218;2024-01-07T06:16:50;24.90;;;16.23;;
80392;SDS011;69719;45.544;10.218;2024-01-07T06:19:19;23.85;;;15.15;;
80392;SDS011;69719;45.544;10.218;2024-01-07T06:21:44;23.70;;;15.20;;
80392;SDS011;69719;45.544;10.218;2024-01-07T06:24:10;26.15;;;16.67;;
80392;SDS011;69719;45.544;10.218;2024-01-07T06:26:36;26.35;;;17.58;;
80392;SDS011;69719;45.544;10.218;2024-01-07T06:29:02;26.05;;;16.92;;
80392;SDS011;69719;45.544;10.218;2024-01-07T06:31:27;26.80;;;17.88;;
80392;SDS011;69719;45.544;10.218;2024-01-07T06:33:53;26.85;;;16.40;;
80392;SDS011;69719;45.544;10.218;2024-01-07T06:36:21;23.25;;;15.68;;
80392;SDS011;69719;45.544;10.218;2024-01-07T06:38:47;25.73;;;15.88;;
80392;SDS011;69719;45.544;10.218;2024-01-07T06:41:13;24.88;;;16.20;;
80392;SDS011;69719;45.544;10.218;2024-01-07T06:43:39;24.27;;;16.05;;
80392;SDS011;69719;45.544;10.218;2024-01-07T06:46:05;23.35;;;15.52;;
80392;SDS011;69719;45.544;10.218;2024-01-07T06:48:31;25.60;;;16.67;;
80392;SDS011;69719;45.544;10.218;2024-01-07T06:50:57;23.48;;;15.52;;
80392;SDS011;69719;45.544;10.218;2024-01-07T06:53:23;26.45;;;16.33;;
80392;SDS011;69719;45.544;10.218;2024-01-07T06:55:49;25.65;;;15.30;;
80392;SDS011;69719;45.544;10.218;2024-01-07T06:58:14;24.30;;;14.43;;
80392;SDS011;69719;45.544;10.218;2024-01-07T07:00:39;26.50;;;15.52;;
80392;SDS011;69719;45.544;10.218;2024-01-07T07:03:05;27.00;;;16.42;;
80392;SDS011;69719;45.544;10.218;2024-01-07T07:05:31;25.70;;;15.43;;
80392;SDS011;69719;45.544;10.218;2024-01-07T07:07:57;26.98;;;15.57;;
80392;SDS011;69719;45.544;10.218;2024-01-07T07:10:22;25.00;;;15.15;;
80392;SDS011;69719;45.544;10.218;2024-01-07T07:12:48;25.00;;;14.90;;
80392;SDS011;69719;45.544;10.218;2024-01-07T07:15:15;25.98;;;16.33;;
80392;SDS011;69719;45.544;10.218;2024-01-07T07:17:41;23.10;;;14.90;;
80392;SDS011;69719;45.544;10.218;2024-01-07T07:20:07;26.02;;;15.65;;
80392;SDS011;69719;45.544;10.218;2024-01-07T07:22:33;26.45;;;15.52;;
80392;SDS011;69719;45.544;10.218;2024-01-07T07:24:59;27.65;;;15.95;;
80392;SDS011;69719;45.544;10.218;2024-01-07T07:27:24;25.75;;;15.75;;
80392;SDS011;69719;45.544;10.218;2024-01-07T07:29:50;25.33;;;15.85;;
80392;SDS011;69719;45.544;10.218;2024-01-07T07:32:15;29.40;;;18.23;;
80392;SDS011;69719;45.544;10.218;2024-01-07T07:34:41;26.67;;;17.25;;
80392;SDS011;69719;45.544;10.218;2024-01-07T07:37:06;27.33;;;17.63;;
80392;SDS011;69719;45.544;10.218;2024-01-07T07:39:32;27.75;;;18.52;;
80392;SDS011;69719;45.544;10.218;2024-01-07T07:41:57;30.27;;;19.08;;
80392;SDS011;69719;45.544;10.218;2024-01-07T07:44:23;32.78;;;20.45;;
80392;SDS011;69719;45.544;10.218;2024-01-07T07:46:48;27.25;;;18.73;;
80392;SDS011;69719;45.544;10.218;2024-01-07T07:49:14;29.30;;;19.67;;
80392;SDS011;69719;45.544;10.218;2024-01-07T07:51:40;27.88;;;18.50;;
80392;SDS011;69719;45.544;10.218;2024-01-07T07:54:06;28.67;;;20.00;;
80392;SDS011;69719;45.544;10.218;2024-01-07T07:56:32;28.13;;;18.60;;
80392;SDS011;69719;45.544;10.218;2024-01-07T07:58:57;29.90;;;19.25;;
80392;SDS011;69719;45.544;10.218;2024-01-07T08:01:23;28.60;;;17.88;;
80392;SDS011;69719;45.544;10.218;2024-01-07T08:03:49;28.85;;;19.27;;
80392;SDS011;69719;45.544;10.218;2024-01-07T08:06:14;30.02;;;19.65;;
80392;SDS011;69719;45.544;10.218;2024-01-07T08:08:40;31.35;;;19.45;;
80392;SDS011;69719;45.544;10.218;2024-01-07T08:11:05;30.27;;;19.52;;
80392;SDS011;69719;45.544;10.218;2024-01-07T08:13:34;30.80;;;20.23;;
80392;SDS011;69719;45.544;10.218;2024-01-07T08:16:01;29.70;;;19.85;;
80392;SDS011;69719;45.544;10.218;2024-01-07T08:18:26;30.10;;;19.60;;
80392;SDS011;69719;45.544;10.218;2024-01-07T08:20:51;32.38;;;20.90;;
80392;SDS011;69719;45.544;10.218;2024-01-07T08:23:17;32.83;;;20.30;;
80392;SDS011;69719;45.544;10.218;2024-01-07T08:25:42;34.40;;;20.50;;
80392;SDS011;69719;45.544;10.218;2024-01-07T08:28:10;31.27;;;21.48;;
80392;SDS011;69719;45.544;10.218;2024-01-07T08:30:35;36.17;;;24.88;;
80392;SDS011;69719;45.544;10.218;2024-01-07T08:33:01;31.23;;;20.95;;
80392;SDS011;69719;45.544;10.218;2024-01-07T08:35:26;30.08;;;20.02;;
80392;SDS011;69719;45.544;10.218;2024-01-07T08:37:52;35.67;;;24.30;;
80392;SDS011;69719;45.544;10.218;2024-01-07T08:40:17;34.50;;;22.00;;
80392;SDS011;69719;45.544;10.218;2024-01-07T08:42:44;32.28;;;20.60;;
80392;SDS011;69719;45.544;10.218;2024-01-07T08:45:10;32.17;;;21.55;;
80392;SDS011;69719;45.544;10.218;2024-01-07T08:47:36;30.42;;;20.48;;
80392;SDS011;69719;45.544;10.218;2024-01-07T08:50:02;28.52;;;19.60;;
80392;SDS011;69719;45.544;10.218;2024-01-07T08:52:28;33.28;;;22.10;;
80392;SDS011;69719;45.544;10.218;2024-01-07T08:54:54;31.75;;;20.48;;
80392;SDS011;69719;45.544;10.218;2024-01-07T08:57:20;28.67;;;19.80;;
80392;SDS011;69719;45.544;10.218;2024-01-07T08:59:46;29.40;;;20.05;;
80392;SDS011;69719;45.544;10.218;2024-01-07T09:02:11;29.02;;;19.77;;
80392;SDS011;69719;45.544;10.218;2024-01-07T09:04:37;27.50;;;18.50;;
80392;SDS011;69719;45.544;10.218;2024-01-07T09:07:03;29.50;;;18.55;;
80392;SDS011;69719;45.544;10.218;2024-01-07T09:09:28;27.27;;;17.13;;
80392;SDS011;69719;45.544;10.218;2024-01-07T09:11:55;26.77;;;17.10;;
80392;SDS011;69719;45.544;10.218;2024-01-07T09:14:22;26.05;;;16.02;;
80392;SDS011;69719;45.544;10.218;2024-01-07T09:16:50;29.00;;;19.17;;
80392;SDS011;69719;45.544;10.218;2024-01-07T09:19:15;29.08;;;18.83;;
80392;SDS011;69719;45.544;10.218;2024-01-07T09:21:41;25.73;;;16.20;;
80392;SDS011;69719;45.544;10.218;2024-01-07T09:24:06;28.13;;;19.10;;
80392;SDS011;69719;45.544;10.218;2024-01-07T09:26:33;38.20;;;26.73;;
80392;SDS011;69719;45.544;10.218;2024-01-07T09:28:59;28.77;;;18.88;;
80392;SDS011;69719;45.544;10.218;2024-01-07T09:31:24;29.08;;;18.88;;
80392;SDS011;69719;45.544;10.218;2024-01-07T09:33:50;28.77;;;19.00;;
80392;SDS011;69719;45.544;10.218;2024-01-07T09:36:15;31.42;;;20.20;;
80392;SDS011;69719;45.544;10.218;2024-01-07T09:38:41;29.20;;;19.92;;
80392;SDS011;69719;45.544;10.218;2024-01-07T09:41:07;30.95;;;20.35;;
80392;SDS011;69719;45.544;10.218;2024-01-07T09:43:32;29.45;;;19.83;;
80392;SDS011;69719;45.544;10.218;2024-01-07T09:45:58;28.92;;;21.00;;
80392;SDS011;69719;45.544;10.218;2024-01-07T09:48:24;31.50;;;21.35;;
80392;SDS011;69719;45.544;10.218;2024-01-07T09:50:51;32.08;;;22.48;;
80392;SDS011;69719;45.544;10.218;2024-01-07T09:53:17;33.28;;;22.23;;
80392;SDS011;69719;45.544;10.218;2024-01-07T09:58:22;35.80;;;22.80;;
80392;SDS011;69719;45.544;10.218;2024-01-07T10:00:47;32.00;;;23.50;;
80392;SDS011;69719;45.544;10.218;2024-01-07T10:03:13;31.17;;;22.48;;
80392;SDS011;69719;45.544;10.218;2024-01-07T10:05:39;31.67;;;21.45;;
80392;SDS011;69719;45.544;10.218;2024-01-07T10:08:04;31.25;;;22.50;;
80392;SDS011;69719;45.544;10.218;2024-01-07T10:10:31;32.00;;;23.05;;
80392;SDS011;69719;45.544;10.218;2024-01-07T10:12:57;35.22;;;23.85;;
80392;SDS011;69719;45.544;10.218;2024-01-07T10:15:23;34.20;;;23.73;;
80392;SDS011;69719;45.544;10.218;2024-01-07T10:17:48;30.92;;;22.52;;
80392;SDS011;69719;45.544;10.218;2024-01-07T10:20:14;33.55;;;24.08;;
80392;SDS011;69719;45.544;10.218;2024-01-07T10:22:41;34.05;;;24.58;;
80392;SDS011;69719;45.544;10.218;2024-01-07T10:25:12;34.40;;;24.27;;
80392;SDS011;69719;45.544;10.218;2024-01-07T10:27:39;31.38;;;21.83;;
80392;SDS011;69719;45.544;10.218;2024-01-07T10:30:05;30.67;;;23.27;;
80392;SDS011;69719;45.544;10.218;2024-01-07T10:32:31;34.55;;;24.67;;
80392;SDS011;69719;45.544;10.218;2024-01-07T10:35:03;34.42;;;25.92;;
80392;SDS011;69719;45.544;10.218;2024-01-07T10:37:30;34.08;;;25.05;;
80392;SDS011;69719;45.544;10.218;2024-01-07T10:39:59;36.47;;;25.33;;
80392;SDS011;69719;45.544;10.218;2024-01-07T10:42:32;35.92;;;25.85;;
80392;SDS011;69719;45.544;10.218;2024-01-07T10:44:59;39.17;;;27.67;;
80392;SDS011;69719;45.544;10.218;2024-01-07T10:47:27;33.65;;;23.85;;
80392;SDS011;69719;45.544;10.218;2024-01-07T10:49:56;34.88;;;26.13;;
80392;SDS011;69719;45.544;10.218;2024-01-07T10:52:23;36.08;;;27.05;;
80392;SDS011;69719;45.544;10.218;2024-01-07T10:54:51;35.58;;;26.00;;
80392;SDS011;69719;45.544;10.218;2024-01-07T10:59:52;37.60;;;27.58;;
80392;SDS011;69719;45.544;10.218;2024-01-07T11:02:19;36.05;;;27.42;;
80392;SDS011;69719;45.544;10.218;2024-01-07T11:04:51;33.65;;;26.50;;
80392;SDS011;69719;45.544;10.218;2024-01-07T11:07:33;34.45;;;25.65;;
80392;SDS011;69719;45.544;10.218;2024-01-07T11:12:37;33.97;;;25.45;;
80392;SDS011;69719;45.544;10.218;2024-01-07T11:15:04;34.45;;;24.88;;
80392;SDS011;69719;45.544;10.218;2024-01-07T11:20:05;38.08;;;26.75;;
80392;SDS011;69719;45.544;10.218;2024-01-07T11:22:51;36.42;;;25.40;;
80392;SDS011;69719;45.544;10.218;2024-01-07T11:25:30;34.67;;;24.88;;
80392;SDS011;69719;45.544;10.218;2024-01-07T11:27:57;36.78;;;26.30;;
80392;SDS011;69719;45.544;10.218;2024-01-07T11:30:24;34.17;;;24.58;;
80392;SDS011;69719;45.544;10.218;2024-01-07T11:32:56;35.78;;;25.85;;
80392;SDS011;69719;45.544;10.218;2024-01-07T11:38:18;33.67;;;24.80;;
80392;SDS011;69719;45.544;10.218;2024-01-07T11:40:44;35.15;;;26.80;;
80392;SDS011;69719;45.544;10.218;2024-01-07T11:43:12;37.50;;;28.13;;
80392;SDS011;69719;45.544;10.218;2024-01-07T11:45:37;37.60;;;28.77;;
80392;SDS011;69719;45.544;10.218;2024-01-07T11:48:04;39.95;;;28.88;;
80392;SDS011;69719;45.544;10.218;2024-01-07T11:50:30;37.72;;;28.67;;
80392;SDS011;69719;45.544;10.218;2024-01-07T11:52:56;40.35;;;30.25;;
80392;SDS011;69719;45.544;10.218;2024-01-07T11:55:22;37.15;;;29.60;;
80392;SDS011;69719;45.544;10.218;2024-01-07T11:57:48;38.58;;;30.48;;
80392;SDS011;69719;45.544;10.218;2024-01-07T12:00:14;38.72;;;29.67;;
80392;SDS011;69719;45.544;10.218;2024-01-07T12:02:40;39.17;;;30.65;;
80392;SDS011;69719;45.544;10.218;2024-01-07T12:05:05;42.13;;;32.15;;
80392;SDS011;69719;45.544;10.218;2024-01-07T12:07:31;38.08;;;31.25;;
80392;SDS011;69719;45.544;10.218;2024-01-07T12:09:57;38.22;;;30.42;;
80392;SDS011;69719;45.544;10.218;2024-01-07T12:12:23;41.22;;;32.63;;
80392;SDS011;69719;45.544;10.218;2024-01-07T12:14:49;44.38;;;32.58;;
80392;SDS011;69719;45.544;10.218;2024-01-07T12:17:18;39.42;;;30.88;;
80392;SDS011;69719;45.544;10.218;2024-01-07T12:19:44;43.20;;;34.20;;
80392;SDS011;69719;45.544;10.218;2024-01-07T12:22:10;37.17;;;29.63;;
80392;SDS011;69719;45.544;10.218;2024-01-07T12:24:35;41.00;;;31.05;;
80392;SDS011;69719;45.544;10.218;2024-01-07T12:27:07;37.28;;;29.70;;
80392;SDS011;69719;45.544;10.218;2024-01-07T12:29:33;38.92;;;29.35;;
80392;SDS011;69719;45.544;10.218;2024-01-07T12:31:59;35.20;;;27.48;;
80392;SDS011;69719;45.544;10.218;2024-01-07T12:34:25;35.85;;;27.17;;
80392;SDS011;69719;45.544;10.218;2024-01-07T12:36:50;31.70;;;23.70;;
80392;SDS011;69719;45.544;10.218;2024-01-07T12:39:20;30.40;;;21.92;;
80392;SDS011;69719;45.544;10.218;2024-01-07T12:41:45;32.03;;;24.30;;
80392;SDS011;69719;45.544;10.218;2024-01-07T12:44:12;31.20;;;23.33;;
80392;SDS011;69719;45.544;10.218;2024-01-07T12:46:37;32.47;;;24.35;;
80392;SDS011;69719;45.544;10.218;2024-01-07T12:49:03;34.92;;;26.27;;
80392;SDS011;69719;45.544;10.218;2024-01-07T12:51:28;35.47;;;28.08;;
80392;SDS011;69719;45.544;10.218;2024-01-07T12:53:54;35.97;;;28.13;;
80392;SDS011;69719;45.544;10.218;2024-01-07T12:56:21;37.30;;;29.40;;
80392;SDS011;69719;45.544;10.218;2024-01-07T12:58:47;34.13;;;26.90;;
80392;SDS011;69719;45.544;10.218;2024-01-07T13:01:14;34.50;;;27.17;;
80392;SDS011;69719;45.544;10.218;2024-01-07T13:03:40;36.28;;;26.92;;
80392;SDS011;69719;45.544;10.218;2024-01-07T13:06:05;33.70;;;26.27;;
80392;SDS011;69719;45.544;10.218;2024-01-07T13:08:31;33.60;;;25.38;;
80392;SDS011;69719;45.544;10.218;2024-01-07T13:10:58;34.42;;;25.67;;
80392;SDS011;69719;45.544;10.218;2024-01-07T13:13:25;33.40;;;25.35;;
80392;SDS011;69719;45.544;10.218;2024-01-07T13:15:51;32.80;;;24.65;;
80392;SDS011;69719;45.544;10.218;2024-01-07T13:18:16;31.35;;;23.77;;
80392;SDS011;69719;45.544;10.218;2024-01-07T13:20:42;32.38;;;23.88;;
80392;SDS011;69719;45.544;10.218;2024-01-07T13:23:08;37.28;;;26.65;;
80392;SDS011;69719;45.544;10.218;2024-01-07T13:25:33;35.13;;;26.65;;
80392;SDS011;69719;45.544;10.218;2024-01-07T13:27:59;56.95;;;39.88;;
80392;SDS011;69719;45.544;10.218;2024-01-07T13:30:25;36.40;;;27.13;;
80392;SDS011;69719;45.544;10.218;2024-01-07T13:32:50;38.20;;;28.73;;
80392;SDS011;69719;45.544;10.218;2024-01-07T13:35:18;36.63;;;28.13;;
80392;SDS011;69719;45.544;10.218;2024-01-07T13:37:44;37.58;;;29.13;;
80392;SDS011;69719;45.544;10.218;2024-01-07T13:40:12;37.70;;;28.02;;
80392;SDS011;69719;45.544;10.218;2024-01-07T13:42:39;38.28;;;29.13;;
80392;SDS011;69719;45.544;10.218;2024-01-07T13:45:05;36.95;;;28.55;;
80392;SDS011;69719;45.544;10.218;2024-01-07T13:47:31;36.83;;;28.73;;
80392;SDS011;69719;45.544;10.218;2024-01-07T13:49:56;33.25;;;25.73;;
80392;SDS011;69719;45.544;10.218;2024-01-07T13:52:22;38.25;;;30.00;;
80392;SDS011;69719;45.544;10.218;2024-01-07T13:54:48;34.13;;;25.85;;
80392;SDS011;69719;45.544;10.218;2024-01-07T13:57:13;31.95;;;24.25;;
80392;SDS011;69719;45.544;10.218;2024-01-07T13:59:39;30.40;;;23.13;;
80392;SDS011;69719;45.544;10.218;2024-01-07T14:02:06;31.85;;;23.25;;
80392;SDS011;69719;45.544;10.218;2024-01-07T14:04:33;31.98;;;22.95;;
80392;SDS011;69719;45.544;10.218;2024-01-07T14:06:58;32.50;;;23.23;;
80392;SDS011;69719;45.544;10.218;2024-01-07T14:09:24;27.92;;;20.23;;
80392;SDS011;69719;45.544;10.218;2024-01-07T14:11:50;29.10;;;21.70;;
80392;SDS011;69719;45.544;10.218;2024-01-07T14:14:16;28.05;;;20.60;;
80392;SDS011;69719;45.544;10.218;2024-01-07T14:16:41;30.70;;;21.65;;
80392;SDS011;69719;45.544;10.218;2024-01-07T14:19:07;27.83;;;19.50;;